createdAt,value
2023-02-11T00:01:21.388Z,10.60
2023-02-11T00:06:24.564Z,11.87
2023-02-11T00:11:30.779Z,11.43
2023-02-11T00:16:33.608Z,11.40
2023-02-11T00:21:36.433Z,11.93
2023-02-11T00:26:40.495Z,11.10
2023-02-11T00:31:43.445Z,11.50
2023-02-11T00:36:46.238Z,11.00
2023-02-11T00:41:52.180Z,10.67
2023-02-11T00:46:54.912Z,11.10
2023-02-11T00:51:57.706Z,10.30
2023-02-11T00:57:01.753Z,11.07
2023-02-11T01:02:04.655Z,10.40
2023-02-11T01:07:07.367Z,12.10
2023-02-11T01:12:11.482Z,11.70
2023-02-11T01:17:16.926Z,11.83
2023-02-11T01:22:19.692Z,11.80
2023-02-11T01:27:24.754Z,12.17
2023-02-11T01:32:27.593Z,10.50
2023-02-11T01:37:30.390Z,11.30
2023-02-11T01:42:34.868Z,11.50
2023-02-11T01:47:37.555Z,11.40
2023-02-11T01:52:41.027Z,12.67
2023-02-11T01:57:47.692Z,12.70
2023-02-11T02:02:55.677Z,11.53
2023-02-11T02:08:05.161Z,12.27
2023-02-11T02:13:09.292Z,12.83
2023-02-11T02:18:23.359Z,12.83
2023-02-11T02:23:39.040Z,12.87
2023-02-11T02:29:03.904Z,13.73
2023-02-11T02:34:11.059Z,12.53
2023-02-11T02:39:17.671Z,12.57
2023-02-11T02:44:21.381Z,11.27
2023-02-11T02:49:25.480Z,12.77
2023-02-11T02:54:45.667Z,11.63
2023-02-11T02:59:55.169Z,11.70
2023-02-11T03:05:04.505Z,13.20
2023-02-11T03:10:09.511Z,11.93
2023-02-11T03:15:13.342Z,11.70
2023-02-11T03:20:18.964Z,11.50
2023-02-11T03:25:22.001Z,12.13
2023-02-11T03:30:28.389Z,11.90
2023-02-11T03:35:34.382Z,12.03
2023-02-11T03:40:39.920Z,11.90
2023-02-11T03:45:42.739Z,12.53
2023-02-11T03:50:47.881Z,11.53
2023-02-11T03:55:52.131Z,12.70
2023-02-11T04:00:54.968Z,12.27
2023-02-11T04:05:59.055Z,11.93
2023-02-11T04:11:01.795Z,12.23
2023-02-11T04:16:08.848Z,11.57
2023-02-11T04:21:12.958Z,12.87
2023-02-11T04:26:15.933Z,11.27
2023-02-11T04:31:18.767Z,12.00
2023-02-11T04:36:22.900Z,12.13
2023-02-11T04:41:25.743Z,13.30
2023-02-11T04:46:28.526Z,11.60
2023-02-11T04:51:32.653Z,11.87
2023-02-11T04:56:35.522Z,11.43
2023-02-11T05:01:38.433Z,11.50
2023-02-11T05:06:42.581Z,11.37
2023-02-11T05:11:45.501Z,11.50
2023-02-11T05:16:48.337Z,11.53
2023-02-11T05:22:02.116Z,12.47
2023-02-11T05:27:05.946Z,10.13
2023-02-11T05:32:09.086Z,11.90
2023-02-11T05:37:13.201Z,11.63
2023-02-11T05:42:16.146Z,11.73
2023-02-11T05:47:18.868Z,11.27
2023-02-11T05:52:23.312Z,11.13
2023-02-11T05:57:26.005Z,12.50
2023-02-11T06:02:28.971Z,11.93
2023-02-11T06:07:33.085Z,10.60
2023-02-11T06:12:36.935Z,11.57
2023-02-11T06:17:39.615Z,12.83
2023-02-11T06:22:43.717Z,12.87
2023-02-11T06:27:46.488Z,12.80
2023-02-11T06:32:49.357Z,12.67
2023-02-11T06:37:54.158Z,12.43
2023-02-11T06:42:57.069Z,12.83
2023-02-11T06:47:59.768Z,12.67
2023-02-11T06:53:03.860Z,13.43
2023-02-11T06:58:06.554Z,12.80
2023-02-11T07:03:09.397Z,15.43
2023-02-11T07:08:13.523Z,13.50
2023-02-11T07:13:16.365Z,14.83
2023-02-11T07:18:19.370Z,14.47
2023-02-11T07:23:23.434Z,17.23
2023-02-11T07:28:26.266Z,16.33
2023-02-11T07:33:29.042Z,14.70
2023-02-11T07:38:33.900Z,16.80
2023-02-11T07:43:37.051Z,15.90
2023-02-11T07:48:39.850Z,15.10
2023-02-11T07:53:43.957Z,14.97
2023-02-11T07:58:47.049Z,15.87
2023-02-11T08:03:49.872Z,15.80
2023-02-11T08:08:54.290Z,14.90
2023-02-11T08:13:58.131Z,15.90
2023-02-11T08:19:02.237Z,14.23
2023-02-11T08:24:07.249Z,15.10
2023-02-11T08:29:12.192Z,14.60
2023-02-11T08:34:18.233Z,16.03
2023-02-11T08:39:23.213Z,18.53
2023-02-11T08:44:26.036Z,15.00
2023-02-11T08:49:30.254Z,16.93
2023-02-11T08:54:34.329Z,17.17
2023-02-11T08:59:37.055Z,15.93
2023-02-11T09:04:40.127Z,14.17
2023-02-11T09:09:44.179Z,18.27
2023-02-11T09:14:47.193Z,16.10
2023-02-11T09:19:49.883Z,14.80
2023-02-11T09:24:54.002Z,15.37
2023-02-11T09:29:56.831Z,15.53
2023-02-11T09:34:59.552Z,16.73
2023-02-11T09:40:03.990Z,15.37
2023-02-11T09:45:15.745Z,15.03
2023-02-11T09:50:23.209Z,15.10
2023-02-11T09:55:29.893Z,16.00
2023-02-11T10:00:35.080Z,14.33
2023-02-11T10:05:51.280Z,15.23
2023-02-11T10:10:58.478Z,15.73
2023-02-11T10:16:11.132Z,15.73
2023-02-11T10:21:21.063Z,13.67
2023-02-11T10:26:27.610Z,13.87
2023-02-11T10:31:37.029Z,14.83
2023-02-11T10:36:41.749Z,14.93
2023-02-11T10:41:47.719Z,14.37
2023-02-11T10:46:50.970Z,13.33
2023-02-11T10:52:14.127Z,14.20
2023-02-11T10:57:20.295Z,13.73
2023-02-11T11:02:25.118Z,14.40
2023-02-11T11:07:29.792Z,15.20
2023-02-11T11:12:42.193Z,13.40
2023-02-11T11:17:45.142Z,14.53
2023-02-11T11:22:48.620Z,15.17
2023-02-11T11:27:54.485Z,13.73
2023-02-11T11:32:57.383Z,15.00
2023-02-11T11:38:02.383Z,14.23
2023-02-11T11:43:16.539Z,14.17
2023-02-11T11:48:23.340Z,14.27
2023-02-11T11:53:30.666Z,14.00
2023-02-11T11:58:35.341Z,13.20
2023-02-11T12:04:06.847Z,12.60
2023-02-11T12:09:20.588Z,13.40
2023-02-11T12:14:40.283Z,13.83
2023-02-11T12:20:03.957Z,13.53
2023-02-11T12:25:19.471Z,13.57
2023-02-11T12:30:40.263Z,13.37
2023-02-11T12:35:49.345Z,13.37
2023-02-11T12:41:01.931Z,12.73
2023-02-11T12:46:25.839Z,12.93
2023-02-11T12:51:38.843Z,13.73
2023-02-11T12:56:46.396Z,15.07
2023-02-11T13:01:50.976Z,13.20
2023-02-11T13:06:57.284Z,13.50
2023-02-11T13:12:22.048Z,13.63
2023-02-11T13:17:29.958Z,13.53
2023-02-11T13:22:35.693Z,12.17
2023-02-11T13:27:42.671Z,12.97
2023-02-11T13:33:06.604Z,11.90
2023-02-11T13:38:21.602Z,11.43
2023-02-11T13:43:28.438Z,13.07
2023-02-11T13:48:34.928Z,12.00
2023-02-11T13:53:46.846Z,11.55
2023-02-11T13:58:50.587Z,11.80
2023-02-11T14:04:38.239Z,12.30
2023-02-11T14:09:41.305Z,12.20
2023-02-11T14:15:02.889Z,13.30
2023-02-11T14:20:36.196Z,11.97
2023-02-11T14:25:40.409Z,13.13
2023-02-11T14:30:51.949Z,12.90
2023-02-11T14:36:03.746Z,12.97
2023-02-11T14:41:08.845Z,13.80
2023-02-11T14:46:11.702Z,12.83
2023-02-11T14:51:19.584Z,11.47
2023-02-11T14:56:26.255Z,12.80
2023-02-11T15:01:32.447Z,11.10
2023-02-11T15:06:38.944Z,12.97
2023-02-11T15:11:43.399Z,13.27
2023-02-11T15:16:47.075Z,12.75
2023-02-11T15:21:51.743Z,12.93
2023-02-11T15:26:59.261Z,12.10
2023-02-11T15:32:07.331Z,12.03
2023-02-11T15:37:14.774Z,12.43
2023-02-11T15:42:19.263Z,11.17
2023-02-11T15:47:22.707Z,11.90
2023-02-11T15:52:28.281Z,11.98
2023-02-11T15:57:31.362Z,12.53
2023-02-11T16:02:36.445Z,12.83
2023-02-11T16:07:43.387Z,11.77
2023-02-11T16:12:53.024Z,13.23
2023-02-11T16:17:56.120Z,11.53
2023-02-11T16:23:01.044Z,11.13
2023-02-11T16:28:03.871Z,12.50
2023-02-11T16:33:06.719Z,12.20
2023-02-11T16:38:10.895Z,11.23
2023-02-11T16:43:13.685Z,11.33
2023-02-11T16:48:18.430Z,12.33
2023-02-11T16:53:24.153Z,10.50
2023-02-11T16:58:26.939Z,11.33
2023-02-11T17:03:30.301Z,12.97
2023-02-11T17:08:35.545Z,11.97
2023-02-11T17:13:39.468Z,13.20
2023-02-11T17:18:42.237Z,13.20
2023-02-11T17:23:46.764Z,11.97
2023-02-11T17:28:49.480Z,12.30
2023-02-11T17:33:52.240Z,11.90
2023-02-11T17:38:56.795Z,12.17
2023-02-11T17:44:00.168Z,12.80
2023-02-11T17:49:03.543Z,13.37
2023-02-11T17:54:09.345Z,13.43
2023-02-11T17:59:13.931Z,12.80
2023-02-11T18:04:18.648Z,14.27
2023-02-11T18:09:22.714Z,13.68
2023-02-11T18:14:25.637Z,13.50
2023-02-11T18:19:32.996Z,14.07
2023-02-11T18:24:37.205Z,14.20
2023-02-11T18:29:40.030Z,15.20
2023-02-11T18:34:42.930Z,14.83
2023-02-11T18:39:47.071Z,14.90
2023-02-11T18:44:50.098Z,16.37
2023-02-11T18:49:53.086Z,14.73
2023-02-11T18:54:57.176Z,15.20
2023-02-11T18:59:59.950Z,16.93
2023-02-11T19:05:02.878Z,15.90
2023-02-11T19:10:08.667Z,15.03
2023-02-11T19:15:11.478Z,16.77
2023-02-11T19:20:14.344Z,16.77
2023-02-11T19:25:18.566Z,15.77
2023-02-11T19:30:21.613Z,14.90
2023-02-11T19:35:25.041Z,15.10
2023-02-11T19:40:29.324Z,15.47
2023-02-11T19:45:32.063Z,15.80
2023-02-11T19:50:34.882Z,16.33
2023-02-11T19:55:39.074Z,16.07
2023-02-11T20:00:42.121Z,17.37
2023-02-11T20:05:47.746Z,16.37
2023-02-11T20:10:51.983Z,17.23
2023-02-11T20:15:55.209Z,17.97
2023-02-11T20:21:00.143Z,17.63
2023-02-11T20:26:08.674Z,16.60
2023-02-11T20:31:12.584Z,17.83
2023-02-11T20:36:16.917Z,18.70
2023-02-11T20:41:22.795Z,15.83
2023-02-11T20:46:27.258Z,16.33
2023-02-11T20:51:31.519Z,17.57
2023-02-11T20:56:37.703Z,16.37
2023-02-11T21:01:43.230Z,17.10
2023-02-11T21:06:48.157Z,17.17
2023-02-11T21:11:53.280Z,16.97
2023-02-11T21:16:56.341Z,14.83
2023-02-11T21:22:00.694Z,15.03
2023-02-11T21:27:04.857Z,13.97
2023-02-11T21:32:07.653Z,14.83
2023-02-11T21:37:10.454Z,16.43
2023-02-11T21:42:14.666Z,15.13
2023-02-11T21:47:17.546Z,17.00
2023-02-11T21:52:20.628Z,17.13
2023-02-11T21:57:24.852Z,16.50
2023-02-11T22:02:27.765Z,15.93
2023-02-11T22:07:30.745Z,14.23
2023-02-11T22:12:34.835Z,15.30
2023-02-11T22:17:37.702Z,15.17
2023-02-11T22:22:40.532Z,15.53
2023-02-11T22:27:44.674Z,15.73
2023-02-11T22:32:47.454Z,14.50
2023-02-11T22:37:50.214Z,15.93
2023-02-11T22:42:54.529Z,14.80
2023-02-11T22:47:57.226Z,15.40
2023-02-11T22:53:00.053Z,16.10
2023-02-11T22:58:04.363Z,15.43
2023-02-11T23:03:08.483Z,15.03
2023-02-11T23:08:12.406Z,14.80
2023-02-11T23:13:16.726Z,16.30
2023-02-11T23:18:19.447Z,14.07
2023-02-11T23:23:22.202Z,14.93
2023-02-11T23:28:26.382Z,15.30
2023-02-11T23:33:29.211Z,15.37
2023-02-11T23:38:31.931Z,15.90
2023-02-11T23:43:36.248Z,15.40
2023-02-11T23:48:40.422Z,16.43
2023-02-11T23:53:43.378Z,15.30
2023-02-11T23:58:48.853Z,15.50
